Time;durP1;ratioP1;P1;durP2;ratioP2;P2;SDS_P1;SDS_P2;PMS_P1;PMS_P2;Temp;Humidity;BMP_temperature;BMP_pressure;BME280_temperature;BME280_humidity;BME280_pressure;Samples;Min_cycle;Max_cycle;Signal;HPM_P1;HPM_P2
2024/02/25 00:02:09;;;;;;;30.00;21.80;;;;;;;4.55;100.00;100439.28;5031875;28;20037;-68
2024/02/25 00:04:35;;;;;;;26.33;19.07;;;;;;;4.51;100.00;100424.69;5030151;28;20068;-67
2024/02/25 00:07:00;;;;;;;30.07;20.97;;;;;;;4.56;100.00;100429.56;5031415;28;20504;-68
2024/02/25 00:09:26;;;;;;;30.27;19.33;;;;;;;4.59;100.00;100445.13;5032417;28;20090;-67
2024/02/25 00:11:51;;;;;;;27.77;18.93;;;;;;;4.60;100.00;100434.44;5032229;28;20124;-69
2024/02/25 00:14:17;;;;;;;29.60;20.13;;;;;;;4.63;100.00;100434.19;5031320;28;20064;-68
2024/02/25 00:16:42;;;;;;;28.97;19.53;;;;;;;4.58;100.00;100428.47;5031610;28;20080;-67
2024/02/25 00:19:08;;;;;;;31.30;19.00;;;;;;;4.69;100.00;100439.91;5031666;28;20405;-67
2024/02/25 00:21:34;;;;;;;31.70;18.03;;;;;;;4.71;100.00;100436.16;5030379;28;20052;-66
2024/02/25 00:23:59;;;;;;;29.00;18.50;;;;;;;4.63;100.00;100428.91;5031062;28;20114;-67
2024/02/25 00:26:27;;;;;;;27.73;19.13;;;;;;;4.59;100.00;100424.84;5031274;28;20094;-66
2024/02/25 00:28:52;;;;;;;27.33;18.20;;;;;;;4.68;100.00;100443.50;5031387;28;20041;-67
2024/02/25 00:31:18;;;;;;;23.90;17.50;;;;;;;4.71;100.00;100448.53;5031772;28;20362;-66
2024/02/25 00:33:44;;;;;;;26.40;17.97;;;;;;;4.65;100.00;100456.00;5037005;28;20080;-65
2024/02/25 00:36:09;;;;;;;36.27;20.33;;;;;;;4.61;100.00;100454.56;5041311;28;20041;-67
2024/02/25 00:38:35;;;;;;;25.53;17.77;;;;;;;4.00;100.00;100359.63;5035912;28;20276;-67
2024/02/25 00:41:01;;;;;;;25.30;17.47;;;;;;;4.67;100.00;100461.16;5034539;28;20038;-67
2024/02/25 00:43:27;;;;;;;27.37;17.87;;;;;;;4.70;100.00;100473.22;5034251;28;20786;-69
2024/02/25 00:45:53;;;;;;;25.27;16.53;;;;;;;4.79;100.00;100496.19;5034672;28;20033;-67
2024/02/25 00:48:18;;;;;;;23.00;16.43;;;;;;;4.61;100.00;100459.84;5033082;28;20030;-66
2024/02/25 00:50:44;;;;;;;24.20;16.10;;;;;;;4.84;100.00;100509.81;5033034;28;20033;-66
2024/02/25 00:53:09;;;;;;;20.67;15.67;;;;;;;4.84;100.00;100513.28;5034129;28;20713;-68
2024/02/25 00:55:35;;;;;;;22.40;16.13;;;;;;;4.82;100.00;100536.31;5034111;28;20041;-67
2024/02/25 00:58:00;;;;;;;22.27;15.27;;;;;;;4.79;100.00;100536.59;5032762;28;20038;-67
2024/02/25 01:00:26;;;;;;;21.53;15.63;;;;;;;4.85;100.00;100545.78;5033014;28;20030;-65
2024/02/25 01:02:51;;;;;;;19.90;13.73;;;;;;;4.93;100.00;100548.63;5034565;28;20044;-68
2024/02/25 01:05:17;;;;;;;17.30;12.63;;;;;;;4.90;100.00;100549.69;5034149;28;20049;-67
2024/02/25 01:07:43;;;;;;;23.50;13.10;;;;;;;4.94;100.00;100550.28;5034679;28;20045;-68
2024/02/25 01:10:09;;;;;;;17.83;12.80;;;;;;;4.80;100.00;100530.34;5034790;28;20741;-67
2024/02/25 01:12:34;;;;;;;14.90;10.80;;;;;;;4.96;100.00;100551.00;5032640;28;20095;-67
2024/02/25 01:15:00;;;;;;;15.77;10.53;;;;;;;5.09;100.00;100570.06;5033570;28;20128;-68
2024/02/25 01:17:26;;;;;;;12.10;9.10;;;;;;;5.13;100.00;100560.91;5033708;28;20476;-67
2024/02/25 01:19:51;;;;;;;13.37;9.87;;;;;;;5.04;100.00;100561.72;5033712;28;20045;-67
2024/02/25 01:22:17;;;;;;;16.80;9.70;;;;;;;5.07;100.00;100571.16;5033997;28;20453;-65
2024/02/25 01:24:42;;;;;;;14.77;9.87;;;;;;;4.97;100.00;100571.97;5035142;28;20029;-66
2024/02/25 01:27:09;;;;;;;12.77;9.53;;;;;;;5.03;100.00;100577.69;5033507;28;20133;-67
2024/02/25 01:29:38;;;;;;;11.07;8.27;;;;;;;5.05;100.00;100597.69;5033807;28;20053;-68
2024/02/25 01:32:05;;;;;;;9.77;7.20;;;;;;;5.07;100.00;100613.41;5033588;28;20048;-67
2024/02/25 01:34:31;;;;;;;8.73;6.37;;;;;;;5.01;100.00;100608.66;5033728;28;20037;-66
2024/02/25 01:36:57;;;;;;;5.77;4.50;;;;;;;5.01;100.00;100620.03;5033303;28;20763;-65
2024/02/25 01:39:23;;;;;;;6.10;4.43;;;;;;;5.01;100.00;100656.16;5032263;28;20283;-67
2024/02/25 01:41:57;;;;;;;3.83;3.50;;;;;;;4.90;100.00;100639.41;5032228;28;20052;-68
2024/02/25 01:44:23;;;;;;;4.17;3.00;;;;;;;4.88;100.00;100656.34;5034010;28;20150;-67
2024/02/25 01:46:48;;;;;;;3.40;2.80;;;;;;;4.71;100.00;100649.00;5033530;28;20771;-66
2024/02/25 01:49:15;;;;;;;1.60;1.50;;;;;;;4.63;100.00;100655.75;5034006;28;20493;-68
2024/02/25 01:51:45;;;;;;;1.60;1.50;;;;;;;4.70;100.00;100687.75;5032671;28;20041;-65
2024/02/25 01:54:12;;;;;;;1.93;1.60;;;;;;;4.67;100.00;100682.72;5033399;28;20778;-68
2024/02/25 01:56:43;;;;;;;1.53;1.43;;;;;;;4.62;100.00;100692.78;5031893;28;20323;-66
2024/02/25 01:59:09;;;;;;;2.30;1.57;;;;;;;4.43;100.00;100682.94;5033505;28;20279;-66
2024/02/25 02:01:35;;;;;;;1.27;1.17;;;;;;;4.55;100.00;100700.38;5032949;28;20265;-69
2024/02/25 02:04:01;;;;;;;2.37;1.33;;;;;;;4.42;100.00;100691.81;5033173;28;20038;-66
2024/02/25 02:06:27;;;;;;;1.30;1.10;;;;;;;4.40;100.00;100699.00;5033092;28;20045;-67
2024/02/25 02:08:53;;;;;;;1.50;1.40;;;;;;;4.39;100.00;100713.16;5031658;28;20321;-66
2024/02/25 02:11:20;;;;;;;1.50;1.40;;;;;;;4.32;100.00;100690.84;5032621;28;20040;-68
2024/02/25 02:13:47;;;;;;;1.10;1.00;;;;;;;4.35;100.00;100712.56;5031991;28;20124;-67
2024/02/25 02:16:15;;;;;;;1.13;1.10;;;;;;;3.49;100.00;100587.81;5033186;28;20091;-64
2024/02/25 02:18:42;;;;;;;1.40;1.13;;;;;;;4.22;100.00;100722.41;5032651;28;20276;-65
2024/02/25 02:21:18;;;;;;;2.60;1.10;;;;;;;4.20;100.00;100723.50;5032403;28;20559;-69
2024/02/25 02:23:44;;;;;;;1.57;1.47;;;;;;;4.18;100.00;100725.41;5032824;28;20260;-67
2024/02/25 02:26:13;;;;;;;1.20;1.10;;;;;;;4.03;100.00;100733.56;5032605;28;20383;-67
2024/02/25 02:28:39;;;;;;;2.13;0.90;;;;;;;3.94;100.00;100738.72;5032468;28;20291;-66
2024/02/25 02:31:05;;;;;;;4.97;1.43;;;;;;;3.86;100.00;100757.78;5032489;28;20509;-66
2024/02/25 02:33:30;;;;;;;2.70;1.10;;;;;;;3.69;100.00;100745.06;5014812;28;20284;-68
2024/02/25 02:35:56;;;;;;;1.10;1.00;;;;;;;3.39;100.00;100714.03;5031946;28;20045;-66
2024/02/25 02:38:22;;;;;;;2.07;1.27;;;;;;;3.60;100.00;100764.22;5031948;28;20489;-67
2024/02/25 02:40:48;;;;;;;0.90;0.90;;;;;;;3.56;100.00;100783.84;5032174;28;20322;-67
2024/02/25 02:43:14;;;;;;;1.10;0.90;;;;;;;3.69;100.00;100800.38;5032240;28;20040;-66
2024/02/25 02:45:39;;;;;;;1.10;1.00;;;;;;;3.55;100.00;100784.81;5032177;28;20453;-66
2024/02/25 02:48:10;;;;;;;0.93;0.87;;;;;;;3.34;100.00;100782.84;5032379;28;20037;-69
2024/02/25 02:50:36;;;;;;;1.03;0.90;;;;;;;3.38;100.00;100801.88;5032198;28;20283;-68
2024/02/25 02:53:02;;;;;;;2.40;0.90;;;;;;;3.34;100.00;100803.91;5032064;28;20274;-66
2024/02/25 02:55:28;;;;;;;0.80;0.80;;;;;;;3.46;100.00;100827.59;5031927;28;20873;-66
2024/02/25 02:57:53;;;;;;;1.00;0.90;;;;;;;3.44;100.00;100838.25;5030209;28;20347;-68
2024/02/25 03:00:19;;;;;;;0.80;0.80;;;;;;;3.30;100.00;100828.78;5031918;28;20037;-68
2024/02/25 03:02:44;;;;;;;0.80;0.80;;;;;;;3.19;100.00;100823.47;5032208;28;20122;-67
2024/02/25 03:05:10;;;;;;;0.90;0.90;;;;;;;3.11;100.00;100802.13;5031650;28;20433;-67
2024/02/25 03:07:35;;;;;;;1.53;1.20;;;;;;;3.21;100.00;100845.25;5032230;28;20044;-66
2024/02/25 03:10:01;;;;;;;1.10;1.00;;;;;;;3.35;100.00;100863.47;5032381;28;20064;-67
2024/02/25 03:12:29;;;;;;;1.40;1.30;;;;;;;3.31;100.00;100864.66;5032808;28;20144;-67
2024/02/25 03:14:55;;;;;;;1.43;1.00;;;;;;;3.24;100.00;100866.09;5032136;28;20272;-67
2024/02/25 03:17:21;;;;;;;1.10;1.10;;;;;;;3.20;100.00;100877.78;5031711;28;20044;-68
2024/02/25 03:19:46;;;;;;;1.10;1.00;;;;;;;3.24;100.00;100881.03;5030487;28;20268;-66
2024/02/25 03:22:12;;;;;;;0.93;0.90;;;;;;;3.10;100.00;100877.59;5030590;28;20630;-67
2024/02/25 03:24:38;;;;;;;1.07;1.03;;;;;;;3.21;100.00;100910.22;5030390;28;20029;-69
2024/02/25 03:27:04;;;;;;;1.37;1.10;;;;;;;3.19;100.00;100915.59;5029353;28;20060;-66
2024/02/25 03:29:30;;;;;;;0.90;0.90;;;;;;;3.21;100.00;100929.47;5031508;28;20276;-66
2024/02/25 03:31:56;;;;;;;0.83;0.83;;;;;;;3.10;100.00;100932.03;5030109;28;20455;-66
2024/02/25 03:34:21;;;;;;;1.00;0.90;;;;;;;2.96;100.00;100913.78;5031414;28;20088;-66
2024/02/25 03:36:47;;;;;;;1.00;0.87;;;;;;;2.80;100.00;100911.38;5030428;28;20037;-66
2024/02/25 03:39:12;;;;;;;1.13;1.07;;;;;;;3.02;100.00;100950.16;5031144;28;20088;-66
2024/02/25 03:41:38;;;;;;;1.30;1.20;;;;;;;2.97;100.00;100974.16;5031191;28;20038;-67
2024/02/25 03:44:04;;;;;;;2.20;1.53;;;;;;;2.87;100.00;100980.16;5031024;28;20128;-67
2024/02/25 03:46:29;;;;;;;1.10;1.00;;;;;;;2.54;100.00;100944.75;5031239;28;20038;-67
2024/02/25 03:48:55;;;;;;;1.10;1.00;;;;;;;2.87;100.00;100988.06;5031303;28;20040;-67
2024/02/25 03:51:21;;;;;;;1.00;1.00;;;;;;;2.85;100.00;101018.91;5031794;28;20041;-67
2024/02/25 03:53:46;;;;;;;1.37;1.10;;;;;;;2.76;100.00;101023.00;5031293;28;20029;-67
2024/02/25 03:56:12;;;;;;;1.23;1.13;;;;;;;2.65;100.00;101017.66;5029801;28;20038;-66
2024/02/25 03:58:37;;;;;;;2.40;1.00;;;;;;;2.78;100.00;101047.41;5030870;28;20084;-69
2024/02/25 04:01:04;;;;;;;1.10;1.00;;;;;;;2.74;100.00;101031.00;5029475;28;20080;-66
2024/02/25 04:03:29;;;;;;;1.37;1.23;;;;;;;2.82;100.00;101043.63;5030884;28;20470;-65
2024/02/25 04:05:55;;;;;;;1.70;1.03;;;;;;;2.87;100.00;101051.19;5031311;28;20272;-69
2024/02/25 04:08:21;;;;;;;5.13;1.30;;;;;;;2.64;100.00;101008.94;5031491;28;20046;-66
2024/02/25 04:10:46;;;;;;;0.90;0.90;;;;;;;2.63;100.00;101020.41;5037381;28;20034;-67
2024/02/25 04:13:12;;;;;;;1.93;1.10;;;;;;;2.84;100.00;101070.66;5038402;28;20613;-67
2024/02/25 04:15:38;;;;;;;1.20;1.10;;;;;;;2.44;100.00;100996.31;5035153;28;20037;-66
2024/02/25 04:18:05;;;;;;;1.00;1.00;;;;;;;2.56;100.00;101021.75;5038122;28;20030;-64
2024/02/25 04:20:30;;;;;;;1.23;1.13;;;;;;;2.87;100.00;101099.38;5035974;28;20037;-67
2024/02/25 04:22:56;;;;;;;1.17;1.07;;;;;;;2.63;100.00;101080.88;5034811;28;20272;-67
2024/02/25 04:25:21;;;;;;;1.47;1.07;;;;;;;2.68;100.00;101089.28;5033828;28;20128;-67
2024/02/25 04:27:47;;;;;;;1.37;1.27;;;;;;;2.54;100.00;101056.97;5034483;28;20122;-67
2024/02/25 04:30:13;;;;;;;2.30;1.07;;;;;;;2.83;100.00;101108.44;5034163;28;20040;-68
2024/02/25 04:32:42;;;;;;;1.20;1.10;;;;;;;2.35;100.00;101037.22;5032605;28;20033;-67
2024/02/25 04:35:08;;;;;;;1.30;1.20;;;;;;;2.49;100.00;101067.81;5034163;28;20720;-65
2024/02/25 04:37:34;;;;;;;1.00;1.00;;;;;;;2.53;100.00;101071.91;5034657;28;20347;-67
2024/02/25 04:40:00;;;;;;;7.30;1.60;;;;;;;2.73;100.00;101113.50;5034719;28;20060;-67
2024/02/25 04:42:26;;;;;;;1.40;1.20;;;;;;;2.85;100.00;101137.25;5034432;28;20039;-67
2024/02/25 04:44:52;;;;;;;2.00;1.10;;;;;;;2.82;100.00;101140.09;5033054;28;20355;-69
2024/02/25 04:47:17;;;;;;;1.10;1.00;;;;;;;2.89;100.00;101150.13;5033285;28;20412;-66
2024/02/25 04:49:43;;;;;;;1.43;1.33;;;;;;;2.74;100.00;101132.75;5034391;28;20214;-67
2024/02/25 04:52:11;;;;;;;1.10;1.00;;;;;;;2.99;100.00;101172.22;5034489;28;20037;-67
2024/02/25 04:54:37;;;;;;;0.88;0.88;;;;;;;2.98;100.00;101180.22;5032980;28;20488;-66
2024/02/25 04:57:02;;;;;;;2.70;1.20;;;;;;;2.98;100.00;101185.50;5032341;28;20038;-66
2024/02/25 04:59:28;;;;;;;1.20;1.00;;;;;;;3.01;100.00;101196.66;5033945;28;20037;-67
2024/02/25 05:01:53;;;;;;;3.17;1.10;;;;;;;2.93;100.00;101179.69;5034027;28;20442;-65
2024/02/25 05:04:19;;;;;;;1.77;1.67;;;;;;;3.04;100.00;101200.84;5035659;28;20026;-67
2024/02/25 05:06:44;;;;;;;1.47;1.23;;;;;;;2.91;100.00;101189.50;5035842;28;20120;-67
2024/02/25 05:09:10;;;;;;;1.33;1.23;;;;;;;3.10;100.00;101219.69;5037215;28;20087;-67
2024/02/25 05:11:36;;;;;;;1.20;1.10;;;;;;;2.92;100.00;101196.44;5035648;28;20044;-67
2024/02/25 05:14:01;;;;;;;1.53;1.10;;;;;;;3.14;100.00;101243.19;5033869;28;20033;-67
2024/02/25 05:16:29;;;;;;;1.40;1.30;;;;;;;3.07;100.00;101232.22;5033986;28;20104;-68
2024/02/25 05:18:55;;;;;;;1.60;1.50;;;;;;;3.24;100.00;101260.06;5033911;28;20040;-67
2024/02/25 05:21:21;;;;;;;1.70;1.60;;;;;;;3.25;100.00;101277.53;5033526;28;20409;-68
2024/02/25 05:23:46;;;;;;;1.83;1.40;;;;;;;3.20;100.00;101282.28;5033947;28;20034;-66
2024/02/25 05:26:13;;;;;;;2.40;1.57;;;;;;;3.09;100.00;101267.19;5034096;28;20102;-67
2024/02/25 05:28:39;;;;;;;3.60;2.10;;;;;;;2.88;100.00;101237.03;5032524;28;20046;-67
2024/02/25 05:31:04;;;;;;;1.87;1.70;;;;;;;3.18;100.00;101287.63;5033694;28;20287;-65
2024/02/25 05:33:30;;;;;;;2.83;1.87;;;;;;;3.08;100.00;101282.13;5034654;28;20037;-67
2024/02/25 05:35:56;;;;;;;1.90;1.70;;;;;;;2.94;100.00;101268.22;5032586;28;20401;-68
2024/02/25 05:38:21;;;;;;;16.73;2.50;;;;;;;3.11;100.00;101312.66;5034156;28;20112;-67
2024/02/25 05:40:47;;;;;;;2.30;1.60;;;;;;;3.04;100.00;101300.84;5034529;28;20037;-67
2024/02/25 05:43:13;;;;;;;2.47;1.90;;;;;;;3.01;100.00;101317.69;5033554;28;20044;-68
2024/02/25 05:45:39;;;;;;;4.43;2.20;;;;;;;2.99;100.00;101318.75;5032557;28;20041;-66
2024/02/25 05:48:06;;;;;;;3.50;2.00;;;;;;;3.16;100.00;101336.88;5033587;28;20037;-67
2024/02/25 05:50:31;;;;;;;3.53;2.27;;;;;;;3.01;100.00;101314.22;5033724;28;20806;-67
2024/02/25 05:52:57;;;;;;;3.60;2.43;;;;;;;3.19;100.00;101341.13;5033628;28;20276;-69
2024/02/25 05:55:23;;;;;;;2.60;2.03;;;;;;;3.00;100.00;101312.53;5031983;28;20038;-68
2024/02/25 05:57:48;;;;;;;2.80;1.80;;;;;;;3.06;100.00;101328.75;5033247;28;20428;-67
2024/02/25 06:00:14;;;;;;;2.47;1.70;;;;;;;3.09;100.00;101335.59;5033138;28;20398;-66
2024/02/25 06:02:44;;;;;;;2.70;1.60;;;;;;;3.19;100.00;101351.66;5033358;28;20042;-68
2024/02/25 06:05:14;;;;;;;2.10;1.87;;;;;;;3.21;100.00;101357.66;5033055;28;20046;-67
2024/02/25 06:07:40;;;;;;;3.30;1.70;;;;;;;3.19;100.00;101373.56;5032874;28;20272;-68
2024/02/25 06:10:06;;;;;;;1.97;1.83;;;;;;;2.91;100.00;101310.50;5032902;28;20280;-67
2024/02/25 06:12:35;;;;;;;1.80;1.70;;;;;;;3.16;100.00;101360.56;5032504;28;20044;-67
2024/02/25 06:15:12;;;;;;;1.60;1.50;;;;;;;3.20;100.00;101369.13;5031759;28;20298;-66
2024/02/25 06:17:39;;;;;;;2.10;2.00;;;;;;;3.19;100.00;101378.81;5031387;28;20139;-65
2024/02/25 06:20:09;;;;;;;2.50;1.93;;;;;;;3.23;100.00;101384.72;5032756;28;20045;-67
2024/02/25 06:22:40;;;;;;;5.13;1.90;;;;;;;3.24;100.00;101389.88;5032391;28;20378;-68
2024/02/25 06:25:07;;;;;;;1.70;1.60;;;;;;;3.17;100.00;101380.69;5032396;28;20362;-69
2024/02/25 06:27:35;;;;;;;2.83;1.70;;;;;;;3.30;100.00;101402.63;5032483;28;20350;-68
2024/02/25 06:30:02;;;;;;;2.38;1.90;;;;;;;3.28;100.00;101401.06;5032564;28;20295;-69
2024/02/25 06:32:32;;;;;;;5.00;1.87;;;;;;;3.16;100.00;101392.16;5031830;28;20136;-68
2024/02/25 06:34:58;;;;;;;2.23;1.90;;;;;;;3.19;100.00;101410.41;5031795;28;20280;-68
2024/02/25 06:37:28;;;;;;;4.03;2.13;;;;;;;3.31;100.00;101414.84;5032114;28;20815;-67
2024/02/25 06:39:53;;;;;;;3.13;2.07;;;;;;;3.39;100.00;101420.47;5032194;28;20854;-67
2024/02/25 06:42:19;;;;;;;6.10;3.17;;;;;;;3.37;100.00;101414.44;5032261;28;20272;-69
2024/02/25 06:44:44;;;;;;;5.23;2.27;;;;;;;3.48;100.00;101437.47;5031785;28;20528;-70
2024/02/25 06:47:10;;;;;;;5.20;2.27;;;;;;;3.40;100.00;101427.41;5030953;28;20053;-70
2024/02/25 06:49:36;;;;;;;3.90;2.67;;;;;;;3.41;100.00;101429.09;5048723;28;20036;-68
2024/02/25 06:52:04;;;;;;;4.23;2.30;;;;;;;3.42;100.00;101438.69;5043495;28;20040;-67
2024/02/25 06:54:33;;;;;;;2.78;2.58;;;;;;;3.33;100.00;101418.22;5034199;28;20037;-66
2024/02/25 06:56:59;;;;;;;7.67;2.80;;;;;;;3.58;100.00;101454.34;5031357;28;20483;-67
2024/02/25 06:59:25;;;;;;;2.60;2.40;;;;;;;3.47;100.00;101429.63;5033012;28;20329;-67
2024/02/25 07:01:50;;;;;;;3.67;3.00;;;;;;;3.38;100.00;101431.09;5032395;28;20075;-71
2024/02/25 07:04:16;;;;;;;4.07;2.70;;;;;;;3.55;100.00;101451.06;5031588;28;20037;-67
2024/02/25 07:06:42;;;;;;;2.70;2.50;;;;;;;3.47;100.00;101454.22;5030248;28;20512;-67
2024/02/25 07:09:08;;;;;;;2.73;2.53;;;;;;;3.54;100.00;101462.56;5031350;28;20142;-67
2024/02/25 07:11:34;;;;;;;3.77;2.77;;;;;;;3.46;100.00;101462.19;5032075;28;20041;-68
2024/02/25 07:14:00;;;;;;;4.67;3.13;;;;;;;3.49;100.00;101472.53;5031862;28;20043;-68
2024/02/25 07:16:26;;;;;;;2.70;2.50;;;;;;;3.30;100.00;101444.75;5031895;28;20295;-68
2024/02/25 07:18:51;;;;;;;4.67;2.73;;;;;;;3.58;100.00;101490.38;5032100;28;20268;-67
2024/02/25 07:21:17;;;;;;;4.07;3.20;;;;;;;3.45;100.00;101479.78;5031989;28;20124;-68
2024/02/25 07:23:43;;;;;;;4.10;2.97;;;;;;;3.56;100.00;101508.06;5031696;28;20041;-68
2024/02/25 07:26:11;;;;;;;2.80;2.60;;;;;;;3.53;100.00;101503.00;5030152;28;20076;-67
2024/02/25 07:28:40;;;;;;;3.80;3.00;;;;;;;3.06;100.00;101434.00;5031623;28;20291;-68
2024/02/25 07:31:13;;;;;;;6.23;2.80;;;;;;;3.46;100.00;101486.72;5031799;28;20288;-69
2024/02/25 07:33:39;;;;;;;3.27;2.77;;;;;;;3.45;100.00;101489.47;5031727;28;20268;-68
2024/02/25 07:36:12;;;;;;;2.97;2.77;;;;;;;3.51;100.00;101494.34;5030943;28;20385;-70
2024/02/25 07:38:39;;;;;;;3.23;2.90;;;;;;;3.54;100.00;101507.31;5031020;28;20045;-68
2024/02/25 07:41:06;;;;;;;3.13;2.50;;;;;;;3.41;100.00;101473.00;5030515;28;20287;-69
2024/02/25 07:43:38;;;;;;;3.80;2.93;;;;;;;3.64;100.00;101509.25;5030551;28;20264;-69
2024/02/25 07:46:05;;;;;;;2.73;2.53;;;;;;;3.75;100.00;101524.34;5035777;28;20283;-72
2024/02/25 07:48:42;;;;;;;3.70;3.00;;;;;;;3.78;100.00;101534.72;5035844;28;20268;-69
2024/02/25 07:51:07;;;;;;;6.23;2.90;;;;;;;3.84;100.00;101541.38;5032260;28;20288;-68
2024/02/25 07:53:33;;;;;;;2.80;2.37;;;;;;;3.77;100.00;101527.75;5034102;28;20291;-67
2024/02/25 07:55:59;;;;;;;4.00;2.53;;;;;;;3.71;100.00;101523.69;5034700;28;20430;-71
2024/02/25 07:58:24;;;;;;;3.50;3.00;;;;;;;3.66;100.00;101533.69;5036121;28;20037;-70
2024/02/25 08:00:50;;;;;;;3.27;2.87;;;;;;;3.73;100.00;101547.31;5033055;28;20029;-69
2024/02/25 08:03:15;;;;;;;3.50;3.20;;;;;;;3.74;100.00;101546.38;5033449;28;20064;-69
2024/02/25 08:05:41;;;;;;;2.77;2.57;;;;;;;3.74;100.00;101546.38;5035607;28;20041;-71
2024/02/25 08:08:06;;;;;;;4.40;3.40;;;;;;;3.90;100.00;101570.78;5034920;28;20076;-69
2024/02/25 08:10:32;;;;;;;2.83;2.63;;;;;;;3.69;100.00;101548.47;5033277;28;20096;-73
2024/02/25 08:12:59;;;;;;;3.47;2.50;;;;;;;3.88;100.00;101585.84;5066985;28;20049;-73
2024/02/25 08:15:25;;;;;;;3.40;3.03;;;;;;;3.71;100.00;101530.75;5010839;28;20153;-68
2024/02/25 08:17:50;;;;;;;7.17;2.60;;;;;;;4.00;100.00;101571.03;5035158;28;20359;-67
2024/02/25 08:20:16;;;;;;;3.97;2.87;;;;;;;4.07;100.00;101579.41;5032713;28;20037;-67
2024/02/25 08:22:42;;;;;;;3.17;2.30;;;;;;;4.10;100.00;101587.94;5034845;28;20061;-68
2024/02/25 08:25:09;;;;;;;3.50;3.20;;;;;;;3.93;100.00;101581.13;5031370;28;20099;-69
2024/02/25 08:27:35;;;;;;;4.23;3.23;;;;;;;4.06;100.00;101611.97;5028668;28;20051;-69
2024/02/25 08:30:02;;;;;;;3.13;2.60;;;;;;;3.79;100.00;101589.09;5032485;28;20333;-67
2024/02/25 08:32:32;;;;;;;4.77;2.60;;;;;;;3.85;100.00;101578.16;5030871;28;20334;-68
2024/02/25 08:34:58;;;;;;;5.43;2.50;;;;;;;4.20;100.00;101614.53;5032569;28;20283;-68
2024/02/25 08:37:26;;;;;;;2.63;2.40;;;;;;;4.32;100.00;101613.72;5032397;28;20810;-69
2024/02/25 08:39:52;;;;;;;4.00;2.33;;;;;;;4.36;100.00;101617.88;5032097;28;20763;-70
2024/02/25 08:42:18;;;;;;;2.80;2.27;;;;;;;4.28;100.00;101628.06;5028860;28;20291;-69
2024/02/25 08:44:45;;;;;;;2.63;2.40;;;;;;;3.94;100.00;101603.91;5032637;28;20291;-67
2024/02/25 08:47:11;;;;;;;3.83;2.43;;;;;;;4.10;100.00;101656.47;5033905;28;20799;-68
2024/02/25 08:49:37;;;;;;;3.43;2.47;;;;;;;3.93;100.00;101646.16;5034770;28;20264;-66
2024/02/25 08:52:04;;;;;;;3.67;1.80;;;;;;;3.64;100.00;101611.13;5033563;28;20495;-67
2024/02/25 08:54:31;;;;;;;2.40;2.00;;;;;;;3.94;100.00;101667.16;5033121;28;20268;-65
2024/02/25 08:56:57;;;;;;;3.47;2.00;;;;;;;3.93;100.00;101680.44;5013453;28;20795;-68
2024/02/25 08:59:24;;;;;;;5.60;2.57;;;;;;;3.92;100.00;101674.31;5033054;28;20776;-65
2024/02/25 09:01:49;;;;;;;3.33;2.73;;;;;;;3.96;100.00;101686.34;5032381;28;20284;-67
2024/02/25 09:04:15;;;;;;;2.43;2.23;;;;;;;3.96;100.00;101685.50;5032191;28;20321;-68
2024/02/25 09:06:41;;;;;;;2.47;2.23;;;;;;;4.01;100.00;101689.53;5032549;28;20128;-72
2024/02/25 09:09:07;;;;;;;3.43;2.67;;;;;;;4.11;100.00;101688.97;5034842;28;20041;-71
2024/02/25 09:11:32;;;;;;;5.03;2.73;;;;;;;3.96;100.00;101665.25;5032661;28;20149;-69
2024/02/25 09:13:58;;;;;;;3.57;2.23;;;;;;;4.04;100.00;101689.31;5031757;28;20367;-70
2024/02/25 09:16:24;;;;;;;3.43;3.13;;;;;;;4.12;100.00;101693.28;5031529;28;20041;-68
2024/02/25 09:18:49;;;;;;;3.30;1.87;;;;;;;4.07;100.00;101688.31;5032642;28;20079;-67
2024/02/25 09:21:15;;;;;;;2.60;2.03;;;;;;;4.03;100.00;101682.38;5032173;28;20497;-69
2024/02/25 09:23:42;;;;;;;3.60;2.30;;;;;;;4.08;100.00;101702.34;5033089;28;20056;-69
2024/02/25 09:26:13;;;;;;;2.27;1.83;;;;;;;3.72;100.00;101658.91;5030214;28;20057;-69
2024/02/25 09:28:43;;;;;;;4.13;2.20;;;;;;;4.07;100.00;101708.56;5025919;28;20319;-70
2024/02/25 09:31:12;;;;;;;4.13;2.07;;;;;;;4.07;100.00;101705.91;5017475;28;20346;-68
2024/02/25 09:33:37;;;;;;;;;;;;;;;4.26;100.00;101735.41;5033370;28;20322;-73
2024/02/25 09:36:03;;;;;;;3.70;2.87;;;;;;;4.03;100.00;101735.09;5031558;28;19921;-71
2024/02/25 09:38:28;;;;;;;3.00;2.70;;;;;;;3.81;100.00;101711.03;5031624;28;20034;-67
2024/02/25 09:41:01;;;;;;;3.37;2.63;;;;;;;3.84;100.00;101718.75;5031616;28;20099;-70
2024/02/25 09:43:27;;;;;;;2.43;2.10;;;;;;;3.83;100.00;101726.75;5032571;28;20033;-69
2024/02/25 09:45:56;;;;;;;2.20;2.00;;;;;;;3.81;100.00;101729.50;5032273;28;20330;-70
2024/02/25 09:48:22;;;;;;;;;;;;;;;3.79;100.00;101728.75;5031877;28;20045;-71
2024/02/25 09:50:49;;;;;;;2.70;2.13;;;;;;;3.68;100.00;101708.31;5028940;28;19975;-69
2024/02/25 09:53:15;;;;;;;2.20;2.00;;;;;;;3.84;100.00;101733.72;5028023;28;20271;-73
2024/02/25 09:55:43;;;;;;;3.10;2.63;;;;;;;3.96;100.00;101736.41;5031029;28;20311;-67
2024/02/25 09:58:09;;;;;;;2.43;2.23;;;;;;;3.82;100.00;101714.53;5031937;28;20047;-73
2024/02/25 10:00:35;;;;;;;3.07;1.97;;;;;;;3.92;100.00;101750.75;5031898;28;20276;-70
2024/02/25 10:03:01;;;;;;;2.27;1.93;;;;;;;3.87;100.00;101722.97;5031238;28;20123;-70
2024/02/25 10:05:26;;;;;;;2.50;2.20;;;;;;;2.95;100.00;101561.94;5029890;28;20041;-71
2024/02/25 10:08:13;;;;;;;3.90;2.10;;;;;;;4.10;100.00;101755.81;5031186;28;20699;-72
2024/02/25 10:10:44;;;;;;;2.77;2.30;;;;;;;4.14;100.00;101752.03;5031337;28;20473;-69
2024/02/25 10:13:13;;;;;;;3.93;2.23;;;;;;;4.22;100.00;101755.88;5028708;28;20798;-71
2024/02/25 10:15:39;;;;;;;2.25;2.05;;;;;;;4.18;100.00;101758.81;5031307;28;20718;-70
2024/02/25 10:18:05;;;;;;;2.50;2.20;;;;;;;4.02;100.00;101743.09;5032094;28;20060;-69
2024/02/25 10:20:31;;;;;;;4.70;2.00;;;;;;;4.02;100.00;101754.47;5029977;28;20311;-69
2024/02/25 10:23:20;;;;;;;3.50;1.90;;;;;;;3.73;100.00;101703.59;5031195;28;20846;-71
2024/02/25 10:25:48;;;;;;;5.40;2.00;;;;;;;3.96;100.00;101741.69;5032688;28;20296;-69
2024/02/25 10:28:17;;;;;;;2.93;2.10;;;;;;;4.06;100.00;101755.16;5029862;28;20292;-71
2024/02/25 10:30:59;;;;;;;2.40;2.20;;;;;;;3.94;100.00;101751.50;5029722;28;20296;-68
2024/02/25 10:33:25;;;;;;;2.93;2.57;;;;;;;3.84;100.00;101750.38;5031698;28;20767;-67
2024/02/25 10:35:53;;;;;;;2.30;1.73;;;;;;;3.80;100.00;101751.50;5030415;28;20728;-68
2024/02/25 10:38:21;;;;;;;2.73;1.70;;;;;;;3.79;100.00;101751.59;5031917;28;20279;-70
2024/02/25 10:40:47;;;;;;;3.60;2.63;;;;;;;3.86;100.00;101779.28;5032291;28;20806;-68
2024/02/25 10:43:14;;;;;;;2.37;1.93;;;;;;;3.81;100.00;101776.91;5031357;28;20287;-68
2024/02/25 10:45:44;;;;;;;3.10;1.80;;;;;;;3.89;100.00;101779.91;5032245;28;20304;-70
2024/02/25 10:48:11;;;;;;;1.80;1.70;;;;;;;3.91;100.00;101778.03;5031989;28;20291;-72
2024/02/25 10:50:38;;;;;;;2.40;2.20;;;;;;;3.86;100.00;101769.56;5032075;28;20326;-71
2024/02/25 10:53:06;;;;;;;2.67;1.80;;;;;;;3.86;100.00;101764.31;5032252;28;20272;-68
2024/02/25 10:55:33;;;;;;;4.07;2.78;;;;;;;4.04;100.00;101789.50;5032315;28;20282;-66
2024/02/25 10:58:01;;;;;;;2.23;2.03;;;;;;;4.06;100.00;101772.78;5031951;28;20045;-70
2024/02/25 11:00:26;;;;;;;2.43;2.20;;;;;;;4.02;100.00;101772.94;5032642;28;20284;-69
2024/02/25 11:02:53;;;;;;;4.47;2.60;;;;;;;4.26;100.00;101788.16;5032206;28;20268;-68
2024/02/25 11:05:19;;;;;;;2.57;2.00;;;;;;;4.25;100.00;101786.47;5032669;28;20079;-69
2024/02/25 11:07:46;;;;;;;5.50;2.40;;;;;;;4.09;100.00;101775.22;5030707;28;20268;-69
2024/02/25 11:10:21;;;;;;;2.77;2.57;;;;;;;4.21;100.00;101774.44;5031982;28;20291;-70
2024/02/25 11:12:53;;;;;;;4.43;2.70;;;;;;;4.25;100.00;101765.38;5032178;28;20268;-68
2024/02/25 11:15:21;;;;;;;4.20;3.20;;;;;;;4.46;100.00;101803.56;5032929;28;20269;-67
2024/02/25 11:17:51;;;;;;;3.10;2.80;;;;;;;4.43;100.00;101795.88;5033351;28;20296;-68
2024/02/25 11:20:22;;;;;;;4.27;2.00;;;;;;;4.34;100.00;101785.91;5032880;28;20707;-70
2024/02/25 11:22:50;;;;;;;3.03;2.67;;;;;;;4.39;100.00;101773.28;5031938;28;20264;-68